Wetterdaten: Woche 03.10.16 - 09.10.16 (KW40)
Datum Zeit Temp. A. Temp. A. max Feuchte A. Luftdruck Regen Wind Richtung Sonnenschein ET UV Solar Taupunkt Windben
03.10.2016 00:00 8,3 C 8,4 C 82 % 1020,3 hPa 0,0 mm 4,7 km/h (1 Bft) S 0,00 h 0,000 mm 0,0 UV-I 0 W/m 5,4 C 8,1 km/h (2 Bft)
03.10.2016 01:00 7,1 C 7,1 C 84 % 1020,8 hPa 0,0 mm 2,6 km/h (1 Bft) S 0,00 h 0,025 mm 0,0 UV-I 0 W/m 4,5 C 4,5 km/h (1 Bft)
03.10.2016 02:00 7,2 C 7,2 C 80 % 1021,3 hPa 0,0 mm 2,1 km/h (1 Bft) S 0,00 h 0,026 mm 0,0 UV-I 0 W/m 3,9 C 3,6 km/h (1 Bft)
03.10.2016 03:00 7,3 C 7,3 C 79 % 1021,5 hPa 0,0 mm 2,6 km/h (1 Bft) S 0,00 h 0,025 mm 0,0 UV-I 0 W/m 3,8 C 4,6 km/h (1 Bft)
03.10.2016 04:00 7,0 C 7,0 C 78 % 1021,7 hPa 0,0 mm 3,3 km/h (1 Bft) S 0,00 h 0,026 mm 0,0 UV-I 0 W/m 3,4 C 5,6 km/h (1 Bft)
03.10.2016 05:00 6,4 C 6,4 C 81 % 1021,9 hPa 0,0 mm 3,1 km/h (1 Bft) S 0,00 h 0,025 mm 0,0 UV-I 0 W/m 3,3 C 5,2 km/h (1 Bft)
03.10.2016 06:00 5,1 C 5,2 C 88 % 1022,3 hPa 0,0 mm 1,3 km/h (1 Bft) S 0,00 h 0,025 mm 0,0 UV-I 0 W/m 3,4 C 2,2 km/h (1 Bft)
03.10.2016 07:00 7,1 C 7,1 C 82 % 1022,8 hPa 0,0 mm 4,4 km/h (1 Bft) S 0,00 h 0,000 mm 0,0 UV-I 11 W/m 4,2 C 7,6 km/h (2 Bft)
03.10.2016 08:00 7,2 C 7,2 C 88 % 1023,9 hPa 1,6 mm 6,1 km/h (2 Bft) W-SW 0,00 h 0,000 mm 0,0 UV-I 21 W/m 5,4 C 10,5 km/h (2 Bft)
03.10.2016 09:00 7,4 C 7,4 C 90 % 1024,7 hPa 0,0 mm 6,0 km/h (2 Bft) W-SW 0,00 h 0,026 mm 0,6 UV-I 90 W/m 5,9 C 10,0 km/h (2 Bft)
03.10.2016 10:00 8,0 C 8,0 C 88 % 1025,2 hPa 0,0 mm 6,3 km/h (2 Bft) W 0,00 h 0,051 mm 0,9 UV-I 125 W/m 6,1 C 10,7 km/h (2 Bft)
03.10.2016 11:00 8,8 C 8,8 C 84 % 1025,3 hPa 0,0 mm 5,9 km/h (2 Bft) W-SW 0,12 h 0,050 mm 1,8 UV-I 189 W/m 6,3 C 10,0 km/h (2 Bft)
03.10.2016 12:00 10,4 C 10,5 C 77 % 1025,3 hPa 0,0 mm 8,9 km/h (2 Bft) W-SW 0,28 h 0,102 mm 2,5 UV-I 371 W/m 6,6 C 15,1 km/h (3 Bft)
03.10.2016 13:00 10,9 C 11,0 C 74 % 1025,2 hPa 0,0 mm 7,9 km/h (2 Bft) W-SW 0,45 h 0,203 mm 2,6 UV-I 402 W/m 6,4 C 13,3 km/h (3 Bft)
03.10.2016 14:00 11,2 C 11,3 C 71 % 1024,9 hPa 0,0 mm 8,0 km/h (2 Bft) W-SW 0,40 h 0,203 mm 2,5 UV-I 322 W/m 6,1 C 13,4 km/h (3 Bft)
03.10.2016 15:00 11,1 C 11,1 C 70 % 1024,7 hPa 0,0 mm 8,3 km/h (2 Bft) W 0,55 h 0,204 mm 1,7 UV-I 298 W/m 5,8 C 13,7 km/h (3 Bft)
03.10.2016 16:00 11,6 C 11,6 C 66 % 1024,5 hPa 0,0 mm 8,7 km/h (2 Bft) W 0,22 h 0,152 mm 1,3 UV-I 127 W/m 5,4 C 14,1 km/h (3 Bft)
03.10.2016 17:00 10,7 C 10,7 C 70 % 1024,6 hPa 0,0 mm 6,8 km/h (2 Bft) W-SW 0,00 h 0,102 mm 0,6 UV-I 41 W/m 5,4 C 11,6 km/h (2 Bft)
03.10.2016 18:00 9,8 C 9,8 C 74 % 1024,5 hPa 0,0 mm 2,3 km/h (1 Bft) S-SW 0,00 h 0,050 mm 0,0 UV-I 11 W/m 5,4 C 4,4 km/h (1 Bft)
03.10.2016 19:00 9,2 C 9,2 C 80 % 1025,3 hPa 0,4 mm 2,4 km/h (1 Bft) S-SW 0,00 h 0,026 mm 0,0 UV-I 0 W/m 5,9 C 4,2 km/h (1 Bft)
03.10.2016 20:00 7,9 C 7,9 C 90 % 1025,9 hPa 0,2 mm 2,7 km/h (1 Bft) W-SW 0,00 h 0,000 mm 0,0 UV-I 0 W/m 6,4 C 4,5 km/h (1 Bft)
03.10.2016 21:00 7,4 C 7,4 C 92 % 1026,3 hPa 0,6 mm 1,6 km/h (1 Bft) W-SW 0,00 h 0,000 mm 0,0 UV-I 0 W/m 6,1 C 3,3 km/h (1 Bft)
03.10.2016 22:00 7,3 C 7,4 C 92 % 1026,5 hPa 0,2 mm 2,0 km/h (1 Bft) S 0,00 h 0,000 mm 0,0 UV-I 0 W/m 6,2 C 3,7 km/h (1 Bft)
03.10.2016 23:00 7,1 C 7,2 C 94 % 1026,5 hPa 0,0 mm 0,8 km/h (0 Bft) S-SW 0,00 h 0,000 mm 0,0 UV-I 0 W/m 6,2 C 1,7 km/h (1 Bft)
04.10.2016 00:00 7,3 C 7,3 C 94 % 1026,3 hPa 0,0 mm 1,3 km/h (1 Bft) S 0,00 h 0,000 mm 0,0 UV-I 0 W/m 6,3 C 2,3 km/h (1 Bft)
04.10.2016 01:00 7,3 C 7,3 C 95 % 1026,2 hPa 0,0 mm 0,2 km/h (0 Bft) S-SO 0,00 h 0,000 mm 0,0 UV-I 0 W/m 6,5 C 0,4 km/h (0 Bft)
04.10.2016 02:00 7,2 C 7,2 C 95 % 1026,3 hPa 0,4 mm 0,0 km/h (0 Bft) N 0,00 h 0,000 mm 0,0 UV-I 0 W/m 6,5 C 0,0 km/h (0 Bft)
04.10.2016 03:00 7,2 C 7,2 C 95 % 1026,2 hPa 1,6 mm 0,6 km/h (0 Bft) S-SO 0,00 h 0,000 mm 0,0 UV-I 0 W/m 6,5 C 1,1 km/h (1 Bft)
04.10.2016 04:00 7,2 C 7,2 C 95 % 1026,2 hPa 0,0 mm 1,3 km/h (1 Bft) N-NW 0,00 h 0,000 mm 0,0 UV-I 0 W/m 6,4 C 2,5 km/h (1 Bft)
04.10.2016 05:00 7,0 C 7,1 C 94 % 1026,5 hPa 0,2 mm 0,5 km/h (0 Bft) NO 0,00 h 0,000 mm 0,0 UV-I 0 W/m 6,1 C 1,0 km/h (0 Bft)
04.10.2016 06:00 6,6 C 6,7 C 94 % 1026,9 hPa 0,0 mm 0,8 km/h (0 Bft) N 0,00 h 0,000 mm 0,0 UV-I 0 W/m 5,7 C 1,7 km/h (1 Bft)
04.10.2016 07:00 6,0 C 6,0 C 95 % 1027,2 hPa 0,0 mm 1,0 km/h (0 Bft) N-NO 0,00 h 0,000 mm 0,0 UV-I 11 W/m 5,2 C 1,7 km/h (1 Bft)
04.10.2016 08:00 5,8 C 5,8 C 95 % 1027,8 hPa 0,0 mm 0,8 km/h (0 Bft) SO 0,00 h 0,000 mm 0,5 UV-I 56 W/m 5,1 C 1,9 km/h (1 Bft)
04.10.2016 09:00 7,3 C 7,3 C 93 % 1027,9 hPa 0,0 mm 1,7 km/h (1 Bft) W-NW 0,00 h 0,025 mm 0,7 UV-I 103 W/m 6,3 C 3,0 km/h (1 Bft)
04.10.2016 10:00 8,0 C 8,0 C 90 % 1028,1 hPa 0,0 mm 1,8 km/h (1 Bft) NW 0,00 h 0,051 mm 1,0 UV-I 120 W/m 6,5 C 3,4 km/h (1 Bft)
04.10.2016 11:00 8,9 C 8,9 C 86 % 1028,2 hPa 0,0 mm 2,6 km/h (1 Bft) W-NW 0,00 h 0,051 mm 1,4 UV-I 180 W/m 6,7 C 4,2 km/h (1 Bft)
04.10.2016 12:00 9,2 C 9,2 C 84 % 1028,3 hPa 0,0 mm 3,0 km/h (1 Bft) NW 0,00 h 0,076 mm 1,3 UV-I 163 W/m 6,7 C 4,6 km/h (1 Bft)
04.10.2016 13:00 9,7 C 9,7 C 83 % 1028,0 hPa 0,0 mm 3,1 km/h (1 Bft) NW 0,00 h 0,076 mm 1,5 UV-I 195 W/m 6,9 C 4,8 km/h (1 Bft)
04.10.2016 14:00 9,7 C 9,8 C 83 % 1027,9 hPa 0,0 mm 3,1 km/h (1 Bft) NW 0,00 h 0,102 mm 1,0 UV-I 134 W/m 7,0 C 4,9 km/h (1 Bft)
04.10.2016 15:00 9,1 C 9,1 C 87 % 1027,9 hPa 0,0 mm 1,4 km/h (1 Bft) W-NW 0,00 h 0,076 mm 0,7 UV-I 101 W/m 7,1 C 2,6 km/h (1 Bft)
04.10.2016 16:00 9,5 C 9,6 C 86 % 1028,0 hPa 0,0 mm 2,7 km/h (1 Bft) NW 0,10 h 0,051 mm 0,7 UV-I 112 W/m 7,3 C 4,2 km/h (1 Bft)
04.10.2016 17:00 8,9 C 8,9 C 90 % 1028,1 hPa 0,0 mm 2,1 km/h (1 Bft) N-NW 0,00 h 0,051 mm 0,0 UV-I 34 W/m 7,4 C 3,5 km/h (1 Bft)
04.10.2016 18:00 8,4 C 8,4 C 92 % 1028,6 hPa 0,0 mm 0,1 km/h (0 Bft) N 0,00 h 0,025 mm 0,0 UV-I 10 W/m 7,1 C 0,2 km/h (0 Bft)
04.10.2016 19:00 7,8 C 7,8 C 94 % 1029,0 hPa 1,2 mm 0,5 km/h (0 Bft) N-NO 0,00 h 0,000 mm 0,0 UV-I 0 W/m 7,0 C 0,9 km/h (0 Bft)
04.10.2016 20:00 7,8 C 7,8 C 95 % 1029,0 hPa 0,2 mm 0,4 km/h (0 Bft) NO 0,00 h 0,000 mm 0,0 UV-I 0 W/m 7,0 C 1,2 km/h (1 Bft)
04.10.2016 21:00 7,2 C 7,3 C 94 % 1029,1 hPa 0,8 mm 5,3 km/h (1 Bft) NO 0,00 h 0,000 mm 0,0 UV-I 0 W/m 6,4 C 9,4 km/h (2 Bft)
04.10.2016 22:00 6,6 C 6,6 C 94 % 1029,3 hPa 0,0 mm 4,6 km/h (1 Bft) NO 0,00 h 0,000 mm 0,0 UV-I 0 W/m 5,7 C 7,8 km/h (2 Bft)
04.10.2016 23:00 6,5 C 6,5 C 94 % 1029,1 hPa 0,0 mm 2,8 km/h (1 Bft) NO 0,00 h 0,000 mm 0,0 UV-I 0 W/m 5,6 C 4,8 km/h (1 Bft)
05.10.2016 00:00 6,4 C 6,4 C 94 % 1028,8 hPa 0,0 mm 2,2 km/h (1 Bft) NO 0,00 h 0,000 mm 0,0 UV-I 0 W/m 5,5 C 3,7 km/h (1 Bft)
05.10.2016 01:00 6,3 C 6,4 C 94 % 1028,5 hPa 0,0 mm 3,1 km/h (1 Bft) NO 0,00 h 0,000 mm 0,0 UV-I 0 W/m 5,4 C 5,0 km/h (1 Bft)
05.10.2016 02:00 6,2 C 6,2 C 94 % 1028,0 hPa 0,0 mm 4,5 km/h (1 Bft) O-NO 0,00 h 0,000 mm 0,0 UV-I 0 W/m 5,3 C 7,1 km/h (2 Bft)
05.10.2016 03:00 5,9 C 6,0 C 94 % 1027,8 hPa 0,0 mm 5,7 km/h (1 Bft) NO 0,00 h 0,000 mm 0,0 UV-I 0 W/m 5,0 C 9,5 km/h (2 Bft)
05.10.2016 04:00 5,5 C 5,5 C 93 % 1027,4 hPa 0,0 mm 4,4 km/h (1 Bft) NO 0,00 h 0,000 mm 0,0 UV-I 0 W/m 4,5 C 7,6 km/h (2 Bft)
05.10.2016 05:00 5,0 C 5,0 C 93 % 1027,2 hPa 0,0 mm 5,3 km/h (1 Bft) O-NO 0,00 h 0,000 mm 0,0 UV-I 0 W/m 3,9 C 9,2 km/h (2 Bft)
05.10.2016 06:00 4,5 C 4,5 C 93 % 1026,7 hPa 0,0 mm 3,5 km/h (1 Bft) O-NO 0,00 h 0,000 mm 0,0 UV-I 0 W/m 3,5 C 6,6 km/h (2 Bft)
05.10.2016 07:00 4,0 C 4,0 C 94 % 1026,7 hPa 0,0 mm 2,9 km/h (1 Bft) NO 0,00 h 0,000 mm 0,0 UV-I 12 W/m 3,1 C 4,9 km/h (1 Bft)
05.10.2016 08:00 3,8 C 3,8 C 94 % 1026,6 hPa 0,0 mm 3,7 km/h (1 Bft) NO 0,00 h 0,000 mm 0,0 UV-I 34 W/m 2,8 C 6,1 km/h (2 Bft)
05.10.2016 09:00 3,9 C 3,9 C 93 % 1026,7 hPa 0,0 mm 5,6 km/h (1 Bft) O-NO 0,00 h 0,025 mm 0,6 UV-I 76 W/m 2,9 C 9,5 km/h (2 Bft)
05.10.2016 10:00 4,7 C 4,7 C 90 % 1026,7 hPa 0,0 mm 6,7 km/h (2 Bft) NO 0,00 h 0,026 mm 1,1 UV-I 168 W/m 3,3 C 11,3 km/h (2 Bft)
05.10.2016 11:00 5,4 C 5,4 C 87 % 1026,8 hPa 0,0 mm 6,6 km/h (2 Bft) NO 0,05 h 0,076 mm 1,2 UV-I 200 W/m 3,3 C 11,4 km/h (2 Bft)
05.10.2016 12:00 5,5 C 5,5 C 84 % 1026,8 hPa 0,0 mm 4,6 km/h (1 Bft) O-NO 0,00 h 0,076 mm 1,3 UV-I 164 W/m 3,1 C 7,8 km/h (2 Bft)
05.10.2016 13:00 5,9 C 5,9 C 80 % 1026,5 hPa 0,0 mm 5,8 km/h (2 Bft) NO 0,00 h 0,076 mm 1,4 UV-I 166 W/m 2,7 C 9,2 km/h (2 Bft)
05.10.2016 14:00 6,2 C 6,2 C 76 % 1025,8 hPa 0,0 mm 5,2 km/h (1 Bft) O-NO 0,12 h 0,077 mm 1,7 UV-I 204 W/m 2,3 C 8,6 km/h (2 Bft)
05.10.2016 15:00 6,7 C 6,7 C 70 % 1025,2 hPa 0,0 mm 3,5 km/h (1 Bft) NO 0,32 h 0,101 mm 1,4 UV-I 258 W/m 1,7 C 6,3 km/h (2 Bft)
05.10.2016 16:00 6,5 C 6,5 C 68 % 1025,2 hPa 0,0 mm 4,7 km/h (1 Bft) NO 0,00 h 0,102 mm 0,8 UV-I 88 W/m 1,0 C 7,8 km/h (2 Bft)
05.10.2016 17:00 6,2 C 6,2 C 69 % 1025,2 hPa 0,0 mm 4,6 km/h (1 Bft) NO 0,00 h 0,051 mm 0,6 UV-I 53 W/m 1,0 C 7,9 km/h (2 Bft)
05.10.2016 18:00 5,1 C 5,1 C 77 % 1025,5 hPa 0,0 mm 1,6 km/h (1 Bft) O 0,00 h 0,025 mm 0,0 UV-I 8 W/m 1,4 C 3,1 km/h (1 Bft)
05.10.2016 19:00 3,3 C 3,4 C 84 % 1025,6 hPa 0,0 mm 1,1 km/h (1 Bft) O-SO 0,00 h 0,000 mm 0,0 UV-I 0 W/m 0,8 C 1,9 km/h (1 Bft)
05.10.2016 20:00 1,7 C 1,7 C 90 % 1025,7 hPa 0,0 mm 0,5 km/h (0 Bft) O-SO 0,00 h 0,000 mm 0,0 UV-I 0 W/m 0,2 C 1,0 km/h (0 Bft)
05.10.2016 21:00 1,6 C 1,6 C 91 % 1025,3 hPa 0,0 mm 0,9 km/h (0 Bft) SO 0,00 h 0,000 mm 0,0 UV-I 0 W/m 0,2 C 1,7 km/h (1 Bft)
05.10.2016 22:00 1,4 C 1,4 C 92 % 1024,5 hPa 0,0 mm 0,2 km/h (0 Bft) SO 0,00 h 0,000 mm 0,0 UV-I 0 W/m 0,3 C 0,5 km/h (0 Bft)
05.10.2016 23:00 0,7 C 0,8 C 93 % 1023,9 hPa 0,0 mm 0,0 km/h (0 Bft) N 0,00 h 0,000 mm 0,0 UV-I 0 W/m -0,3 C 0,0 km/h (0 Bft)
06.10.2016 00:00 -0,0 C 0,0 C 94 % 1023,5 hPa 0,0 mm 0,2 km/h (0 Bft) SO 0,00 h 0,000 mm 0,0 UV-I 0 W/m -0,9 C 0,6 km/h (0 Bft)
06.10.2016 01:00 -0,4 C -0,4 C 93 % 1022,9 hPa 0,0 mm 0,3 km/h (0 Bft) W 0,00 h 0,000 mm 0,0 UV-I 0 W/m -1,4 C 0,7 km/h (0 Bft)
06.10.2016 02:00 -0,9 C -0,8 C 94 % 1022,5 hPa 0,0 mm 0,2 km/h (0 Bft) W 0,00 h 0,000 mm 0,0 UV-I 0 W/m -1,8 C 0,7 km/h (0 Bft)
06.10.2016 03:00 -1,4 C -1,4 C 94 % 1021,7 hPa 0,0 mm 0,1 km/h (0 Bft) W 0,00 h 0,000 mm 0,0 UV-I 0 W/m -2,2 C 0,3 km/h (0 Bft)
06.10.2016 04:00 -0,8 C -0,8 C 94 % 1021,5 hPa 0,0 mm 0,3 km/h (0 Bft) S-SW 0,00 h 0,000 mm 0,0 UV-I 0 W/m -1,6 C 0,8 km/h (0 Bft)
06.10.2016 05:00 0,3 C 0,3 C 92 % 1021,3 hPa 0,0 mm 1,9 km/h (1 Bft) S 0,00 h 0,000 mm 0,0 UV-I 0 W/m -0,8 C 3,0 km/h (1 Bft)
06.10.2016 06:00 0,8 C 0,8 C 91 % 1020,9 hPa 0,0 mm 0,5 km/h (0 Bft) S-SW 0,00 h 0,000 mm 0,0 UV-I 0 W/m -0,5 C 1,4 km/h (1 Bft)
06.10.2016 07:00 0,8 C 0,8 C 92 % 1020,6 hPa 0,0 mm 0,1 km/h (0 Bft) S-SW 0,02 h 0,000 mm 0,0 UV-I 19 W/m -0,4 C 0,7 km/h (0 Bft)
06.10.2016 08:00 1,5 C 1,5 C 92 % 1020,5 hPa 0,0 mm 0,6 km/h (0 Bft) W-NW 0,07 h 0,000 mm 0,6 UV-I 68 W/m 0,3 C 1,2 km/h (1 Bft)
06.10.2016 09:00 3,4 C 3,5 C 85 % 1020,1 hPa 0,0 mm 1,1 km/h (1 Bft) W 0,13 h 0,025 mm 0,9 UV-I 93 W/m 1,1 C 2,2 km/h (1 Bft)
06.10.2016 10:00 5,1 C 5,1 C 82 % 1019,9 hPa 0,0 mm 2,2 km/h (1 Bft) N 0,28 h 0,026 mm 1,7 UV-I 282 W/m 2,2 C 3,7 km/h (1 Bft)
06.10.2016 11:00 6,3 C 6,4 C 79 % 1019,4 hPa 0,0 mm 4,2 km/h (1 Bft) NO 0,72 h 0,101 mm 2,7 UV-I 480 W/m 3,0 C 6,4 km/h (2 Bft)
06.10.2016 12:00 7,3 C 7,4 C 76 % 1019,3 hPa 0,0 mm 4,9 km/h (1 Bft) NW 0,63 h 0,204 mm 2,9 UV-I 458 W/m 3,4 C 7,4 km/h (2 Bft)
06.10.2016 13:00 7,8 C 7,8 C 75 % 1019,2 hPa 0,0 mm 4,5 km/h (1 Bft) NW 0,65 h 0,203 mm 2,5 UV-I 399 W/m 3,6 C 7,2 km/h (2 Bft)
06.10.2016 14:00 8,1 C 8,1 C 74 % 1018,5 hPa 0,0 mm 3,9 km/h (1 Bft) N 0,67 h 0,178 mm 2,2 UV-I 344 W/m 3,7 C 6,2 km/h (2 Bft)
06.10.2016 15:00 8,1 C 8,1 C 75 % 1017,9 hPa 0,0 mm 4,9 km/h (1 Bft) O-NO 0,20 h 0,152 mm 1,5 UV-I 239 W/m 4,0 C 7,8 km/h (2 Bft)
06.10.2016 16:00 7,5 C 7,5 C 77 % 1017,5 hPa 0,0 mm 4,8 km/h (1 Bft) O-NO 0,00 h 0,127 mm 1,0 UV-I 96 W/m 3,8 C 7,7 km/h (2 Bft)
06.10.2016 17:00 7,0 C 7,0 C 80 % 1017,3 hPa 0,0 mm 4,3 km/h (1 Bft) O-NO 0,00 h 0,051 mm 0,6 UV-I 50 W/m 3,8 C 7,5 km/h (2 Bft)
06.10.2016 18:00 6,2 C 6,2 C 85 % 1017,6 hPa 0,0 mm 1,1 km/h (0 Bft) O-NO 0,00 h 0,025 mm 0,0 UV-I 14 W/m 3,9 C 2,2 km/h (1 Bft)
06.10.2016 19:00 5,9 C 5,9 C 88 % 1018,0 hPa 0,0 mm 1,3 km/h (1 Bft) NO 0,00 h 0,000 mm 0,0 UV-I 0 W/m 4,1 C 2,4 km/h (1 Bft)
06.10.2016 20:00 5,7 C 5,7 C 89 % 1018,3 hPa 0,0 mm 1,3 km/h (1 Bft) O-NO 0,00 h 0,000 mm 0,0 UV-I 0 W/m 4,0 C 2,5 km/h (1 Bft)
06.10.2016 21:00 5,6 C 5,6 C 90 % 1018,3 hPa 0,0 mm 0,8 km/h (0 Bft) O-NO 0,00 h 0,000 mm 0,0 UV-I 0 W/m 4,1 C 1,8 km/h (1 Bft)
06.10.2016 22:00 5,4 C 5,4 C 91 % 1018,1 hPa 0,0 mm 1,0 km/h (0 Bft) O 0,00 h 0,000 mm 0,0 UV-I 0 W/m 4,1 C 2,3 km/h (1 Bft)
06.10.2016 23:00 5,3 C 5,4 C 91 % 1017,6 hPa 0,0 mm 2,0 km/h (1 Bft) O-NO 0,00 h 0,000 mm 0,0 UV-I 0 W/m 4,0 C 3,4 km/h (1 Bft)
07.10.2016 00:00 5,0 C 5,0 C 93 % 1017,1 hPa 0,0 mm 0,2 km/h (0 Bft) O-NO 0,00 h 0,000 mm 0,0 UV-I 0 W/m 3,9 C 0,5 km/h (0 Bft)
07.10.2016 01:00 4,6 C 4,6 C 94 % 1016,9 hPa 0,0 mm 0,2 km/h (0 Bft) O-NO 0,00 h 0,000 mm 0,0 UV-I 0 W/m 3,6 C 0,3 km/h (0 Bft)
07.10.2016 02:00 4,8 C 4,8 C 94 % 1017,0 hPa 0,0 mm 0,5 km/h (0 Bft) O-NO 0,00 h 0,000 mm 0,0 UV-I 0 W/m 3,9 C 1,2 km/h (1 Bft)
07.10.2016 03:00 5,0 C 5,0 C 94 % 1016,5 hPa 0,0 mm 0,1 km/h (0 Bft) N 0,00 h 0,000 mm 0,0 UV-I 0 W/m 4,1 C 0,6 km/h (0 Bft)
07.10.2016 04:00 5,1 C 5,1 C 93 % 1016,1 hPa 0,0 mm 1,0 km/h (0 Bft) N 0,00 h 0,000 mm 0,0 UV-I 0 W/m 4,1 C 1,9 km/h (1 Bft)
07.10.2016 05:00 4,8 C 4,9 C 94 % 1016,0 hPa 0,0 mm 0,5 km/h (0 Bft) N 0,00 h 0,000 mm 0,0 UV-I 0 W/m 3,9 C 1,2 km/h (1 Bft)
07.10.2016 06:00 4,7 C 4,7 C 94 % 1015,9 hPa 0,0 mm 0,2 km/h (0 Bft) S 0,00 h 0,000 mm 0,0 UV-I 0 W/m 3,8 C 0,6 km/h (0 Bft)
07.10.2016 07:00 4,7 C 4,7 C 95 % 1016,1 hPa 0,0 mm 0,4 km/h (0 Bft) S 0,00 h 0,000 mm 0,0 UV-I 5 W/m 3,9 C 1,0 km/h (0 Bft)
07.10.2016 08:00 5,1 C 5,1 C 94 % 1016,4 hPa 0,0 mm 0,1 km/h (0 Bft) N 0,00 h 0,000 mm 0,0 UV-I 12 W/m 4,1 C 0,4 km/h (0 Bft)
07.10.2016 09:00 5,5 C 5,5 C 92 % 1016,5 hPa 0,0 mm 0,4 km/h (0 Bft) S 0,00 h 0,000 mm 0,0 UV-I 41 W/m 4,4 C 1,2 km/h (1 Bft)
07.10.2016 10:00 6,3 C 6,3 C 89 % 1016,6 hPa 0,0 mm 1,1 km/h (1 Bft) W 0,00 h 0,025 mm 0,6 UV-I 76 W/m 4,6 C 2,1 km/h (1 Bft)
07.10.2016 11:00 7,3 C 7,3 C 86 % 1016,5 hPa 0,0 mm 2,0 km/h (1 Bft) W 0,00 h 0,026 mm 1,5 UV-I 205 W/m 5,1 C 3,2 km/h (1 Bft)
07.10.2016 12:00 8,3 C 8,4 C 82 % 1016,4 hPa 0,0 mm 2,4 km/h (1 Bft) NW 0,00 h 0,101 mm 2,0 UV-I 276 W/m 5,4 C 3,8 km/h (1 Bft)
07.10.2016 13:00 9,0 C 9,1 C 79 % 1016,4 hPa 0,0 mm 2,5 km/h (1 Bft) O-NO 0,03 h 0,127 mm 1,9 UV-I 258 W/m 5,7 C 4,3 km/h (1 Bft)
07.10.2016 14:00 8,6 C 8,6 C 82 % 1016,5 hPa 0,0 mm 3,8 km/h (1 Bft) NO 0,00 h 0,127 mm 0,7 UV-I 56 W/m 5,7 C 6,0 km/h (2 Bft)
07.10.2016 15:00 8,1 C 8,2 C 85 % 1016,7 hPa 0,0 mm 3,1 km/h (1 Bft) O-NO 0,00 h 0,026 mm 0,0 UV-I 51 W/m 5,8 C 4,8 km/h (1 Bft)
07.10.2016 16:00 7,7 C 7,8 C 89 % 1016,9 hPa 0,0 mm 2,8 km/h (1 Bft) N 0,00 h 0,025 mm 0,0 UV-I 31 W/m 6,0 C 4,4 km/h (1 Bft)
07.10.2016 17:00 7,2 C 7,2 C 91 % 1017,1 hPa 0,0 mm 0,7 km/h (0 Bft) N-NW 0,00 h 0,026 mm 0,0 UV-I 20 W/m 5,9 C 1,5 km/h (1 Bft)
07.10.2016 18:00 7,0 C 7,0 C 92 % 1017,4 hPa 0,0 mm 0,1 km/h (0 Bft) N-NO 0,00 h 0,000 mm 0,0 UV-I 7 W/m 5,8 C 0,2 km/h (0 Bft)
07.10.2016 19:00 6,9 C 6,9 C 93 % 1017,7 hPa 0,0 mm 0,8 km/h (0 Bft) N-NO 0,00 h 0,000 mm 0,0 UV-I 0 W/m 5,8 C 1,6 km/h (1 Bft)
07.10.2016 20:00 6,8 C 6,8 C 94 % 1017,7 hPa 0,0 mm 0,1 km/h (0 Bft) N-NO 0,00 h 0,000 mm 0,0 UV-I 0 W/m 5,8 C 0,4 km/h (0 Bft)
07.10.2016 21:00 6,7 C 6,7 C 94 % 1017,7 hPa 0,0 mm 0,8 km/h (0 Bft) NO 0,00 h 0,000 mm 0,0 UV-I 0 W/m 5,8 C 1,5 km/h (1 Bft)
07.10.2016 22:00 6,5 C 6,5 C 94 % 1017,8 hPa 0,2 mm 1,3 km/h (1 Bft) NO 0,00 h 0,000 mm 0,0 UV-I 0 W/m 5,7 C 2,6 km/h (1 Bft)
07.10.2016 23:00 6,3 C 6,3 C 95 % 1017,7 hPa 0,0 mm 2,4 km/h (1 Bft) NO 0,00 h 0,000 mm 0,0 UV-I 0 W/m 5,5 C 4,1 km/h (1 Bft)
08.10.2016 00:00 6,1 C 6,1 C 95 % 1017,6 hPa 0,0 mm 1,6 km/h (1 Bft) O-NO 0,00 h 0,000 mm 0,0 UV-I 0 W/m 5,4 C 2,9 km/h (1 Bft)
08.10.2016 01:00 6,2 C 6,2 C 95 % 1017,7 hPa 0,0 mm 1,6 km/h (1 Bft) O-NO 0,00 h 0,000 mm 0,0 UV-I 0 W/m 5,4 C 3,0 km/h (1 Bft)
08.10.2016 02:00 6,0 C 6,1 C 95 % 1017,6 hPa 0,2 mm 1,3 km/h (1 Bft) O-NO 0,00 h 0,000 mm 0,0 UV-I 0 W/m 5,3 C 2,5 km/h (1 Bft)
08.10.2016 03:00 6,1 C 6,1 C 95 % 1017,2 hPa 0,2 mm 0,9 km/h (0 Bft) O-NO 0,00 h 0,000 mm 0,0 UV-I 0 W/m 5,3 C 1,9 km/h (1 Bft)
08.10.2016 04:00 6,0 C 6,1 C 95 % 1016,8 hPa 0,4 mm 0,6 km/h (0 Bft) NO 0,00 h 0,000 mm 0,0 UV-I 0 W/m 5,3 C 1,2 km/h (1 Bft)
08.10.2016 05:00 6,0 C 6,0 C 95 % 1016,8 hPa 0,4 mm 0,3 km/h (0 Bft) NO 0,00 h 0,000 mm 0,0 UV-I 0 W/m 5,2 C 0,6 km/h (0 Bft)
08.10.2016 06:00 5,8 C 5,9 C 96 % 1017,0 hPa 0,6 mm 1,4 km/h (1 Bft) NW 0,00 h 0,000 mm 0,0 UV-I 0 W/m 5,2 C 2,5 km/h (1 Bft)
08.10.2016 07:00 5,8 C 5,8 C 95 % 1017,3 hPa 0,4 mm 1,6 km/h (1 Bft) N-NO 0,00 h 0,000 mm 0,0 UV-I 5 W/m 5,1 C 3,0 km/h (1 Bft)
08.10.2016 08:00 5,6 C 5,7 C 95 % 1017,7 hPa 0,4 mm 1,5 km/h (1 Bft) N 0,00 h 0,000 mm 0,0 UV-I 12 W/m 4,9 C 2,8 km/h (1 Bft)
08.10.2016 09:00 5,5 C 5,5 C 95 % 1018,2 hPa 1,0 mm 2,1 km/h (1 Bft) N-NO 0,00 h 0,000 mm 0,0 UV-I 25 W/m 4,7 C 3,5 km/h (1 Bft)
08.10.2016 10:00 5,3 C 5,3 C 94 % 1018,7 hPa 0,2 mm 2,1 km/h (1 Bft) N 0,00 h 0,000 mm 0,0 UV-I 48 W/m 4,3 C 3,5 km/h (1 Bft)
08.10.2016 11:00 5,0 C 5,0 C 93 % 1019,1 hPa 0,2 mm 0,9 km/h (0 Bft) O-NO 0,00 h 0,025 mm 0,6 UV-I 65 W/m 3,9 C 1,7 km/h (1 Bft)
08.10.2016 12:00 5,3 C 5,3 C 93 % 1019,5 hPa 0,2 mm 0,5 km/h (0 Bft) O-NO 0,00 h 0,026 mm 0,8 UV-I 102 W/m 4,2 C 1,1 km/h (1 Bft)
08.10.2016 13:00 5,5 C 5,6 C 92 % 1019,6 hPa 0,0 mm 1,7 km/h (1 Bft) N-NO 0,00 h 0,051 mm 0,8 UV-I 108 W/m 4,3 C 3,0 km/h (1 Bft)
08.10.2016 14:00 5,9 C 5,9 C 91 % 1019,7 hPa 0,0 mm 0,0 km/h (0 Bft) N 0,00 h 0,050 mm 0,8 UV-I 106 W/m 4,4 C 0,0 km/h (0 Bft)
08.10.2016 15:00 6,3 C 6,3 C 89 % 1020,0 hPa 0,0 mm 0,0 km/h (0 Bft) N 0,00 h 0,051 mm 1,0 UV-I 129 W/m 4,7 C 0,0 km/h (0 Bft)
08.10.2016 16:00 5,6 C 5,6 C 93 % 1020,4 hPa 0,2 mm 0,0 km/h (0 Bft) N 0,00 h 0,051 mm 0,0 UV-I 40 W/m 4,6 C 0,0 km/h (0 Bft)
08.10.2016 17:00 5,6 C 5,6 C 94 % 1020,8 hPa 1,0 mm 1,3 km/h (1 Bft) NW 0,00 h 0,025 mm 0,0 UV-I 12 W/m 4,6 C 2,1 km/h (1 Bft)
08.10.2016 18:00 5,0 C 5,0 C 95 % 1021,3 hPa 0,2 mm 0,0 km/h (0 Bft) N 0,00 h 0,000 mm 0,0 UV-I 6 W/m 4,3 C 0,0 km/h (0 Bft)
08.10.2016 19:00 4,9 C 4,9 C 95 % 1021,8 hPa 0,6 mm 1,0 km/h (0 Bft) W 0,00 h 0,000 mm 0,0 UV-I 0 W/m 4,1 C 1,7 km/h (1 Bft)
08.10.2016 20:00 4,8 C 4,8 C 96 % 1022,2 hPa 0,2 mm 0,7 km/h (0 Bft) S-SW 0,00 h 0,000 mm 0,0 UV-I 0 W/m 4,1 C 1,4 km/h (1 Bft)
08.10.2016 21:00 4,7 C 4,7 C 96 % 1022,4 hPa 0,0 mm 0,2 km/h (0 Bft) S-SW 0,00 h 0,000 mm 0,0 UV-I 0 W/m 4,2 C 0,6 km/h (0 Bft)
08.10.2016 22:00 4,6 C 4,6 C 96 % 1022,6 hPa 0,0 mm 0,0 km/h (0 Bft) N 0,00 h 0,000 mm 0,0 UV-I 0 W/m 4,0 C 0,2 km/h (0 Bft)
08.10.2016 23:00 4,1 C 4,1 C 96 % 1022,4 hPa 0,0 mm 0,6 km/h (0 Bft) S-SW 0,00 h 0,000 mm 0,0 UV-I 0 W/m 3,5 C 1,2 km/h (1 Bft)
09.10.2016 00:00 3,1 C 3,1 C 96 % 1022,1 hPa 0,0 mm 0,7 km/h (0 Bft) S-SW 0,00 h 0,000 mm 0,0 UV-I 0 W/m 2,5 C 1,5 km/h (1 Bft)
09.10.2016 01:00 2,5 C 2,6 C 96 % 1022,3 hPa 0,0 mm 0,5 km/h (0 Bft) S-SO 0,00 h 0,000 mm 0,0 UV-I 0 W/m 2,0 C 1,1 km/h (0 Bft)
09.10.2016 02:00 2,6 C 2,7 C 97 % 1022,6 hPa 0,0 mm 0,0 km/h (0 Bft) S-SO 0,00 h 0,000 mm 0,0 UV-I 0 W/m 2,2 C 0,1 km/h (0 Bft)
09.10.2016 03:00 2,8 C 2,8 C 97 % 1022,5 hPa 0,0 mm 0,2 km/h (0 Bft) NW 0,00 h 0,000 mm 0,0 UV-I 0 W/m 2,3 C 0,4 km/h (0 Bft)
09.10.2016 04:00 2,2 C 2,2 C 96 % 1022,2 hPa 0,0 mm 0,3 km/h (0 Bft) NW 0,00 h 0,000 mm 0,0 UV-I 0 W/m 1,7 C 0,6 km/h (0 Bft)
09.10.2016 05:00 1,1 C 1,1 C 96 % 1022,2 hPa 0,0 mm 0,2 km/h (0 Bft) S-SW 0,00 h 0,000 mm 0,0 UV-I 0 W/m 0,5 C 0,7 km/h (0 Bft)
09.10.2016 06:00 0,7 C 0,7 C 96 % 1022,2 hPa 0,0 mm 0,1 km/h (0 Bft) S-SW 0,00 h 0,000 mm 0,0 UV-I 0 W/m 0,2 C 0,3 km/h (0 Bft)
09.10.2016 07:00 0,6 C 0,7 C 97 % 1022,4 hPa 0,0 mm 0,1 km/h (0 Bft) N-NW 0,03 h 0,000 mm 0,0 UV-I 14 W/m 0,2 C 0,4 km/h (0 Bft)
09.10.2016 08:00 1,0 C 1,0 C 97 % 1022,5 hPa 0,0 mm 0,4 km/h (0 Bft) NO 0,00 h 0,000 mm 0,5 UV-I 49 W/m 0,6 C 1,0 km/h (0 Bft)
09.10.2016 09:00 2,0 C 2,0 C 97 % 1022,6 hPa 0,0 mm 0,2 km/h (0 Bft) NO 0,00 h 0,025 mm 0,8 UV-I 72 W/m 1,6 C 0,4 km/h (0 Bft)
09.10.2016 10:00 4,4 C 4,4 C 95 % 1022,5 hPa 0,0 mm 3,2 km/h (1 Bft) O-NO 0,12 h 0,026 mm 1,3 UV-I 125 W/m 3,6 C 5,0 km/h (1 Bft)
09.10.2016 11:00 6,1 C 6,1 C 89 % 1022,4 hPa 0,0 mm 6,0 km/h (2 Bft) NO 0,65 h 0,051 mm 2,1 UV-I 350 W/m 4,4 C 9,4 km/h (2 Bft)
09.10.2016 12:00 6,9 C 7,0 C 85 % 1022,3 hPa 0,0 mm 6,5 km/h (2 Bft) O-NO 1,00 h 0,152 mm 2,5 UV-I 395 W/m 4,7 C 10,7 km/h (2 Bft)
09.10.2016 13:00 7,5 C 7,5 C 83 % 1021,9 hPa 0,0 mm 6,1 km/h (2 Bft) O-NO 0,78 h 0,178 mm 2,3 UV-I 355 W/m 4,7 C 10,4 km/h (2 Bft)
09.10.2016 14:00 7,9 C 7,9 C 80 % 1021,7 hPa 0,0 mm 4,8 km/h (1 Bft) O-NO 0,00 h 0,178 mm 1,5 UV-I 212 W/m 4,7 C 7,8 km/h (2 Bft)
09.10.2016 15:00 8,0 C 8,0 C 77 % 1021,5 hPa 0,0 mm 5,6 km/h (1 Bft) NO 0,05 h 0,101 mm 1,3 UV-I 182 W/m 4,2 C 8,9 km/h (2 Bft)
09.10.2016 16:00 7,9 C 7,9 C 77 % 1021,5 hPa 0,0 mm 5,2 km/h (1 Bft) NO 0,02 h 0,102 mm 0,8 UV-I 125 W/m 4,1 C 8,3 km/h (2 Bft)
09.10.2016 17:00 6,8 C 6,8 C 81 % 1021,4 hPa 0,0 mm 2,8 km/h (1 Bft) SO 0,00 h 0,076 mm 0,6 UV-I 40 W/m 3,7 C 4,8 km/h (1 Bft)
09.10.2016 18:00 5,0 C 5,0 C 90 % 1022,0 hPa 0,0 mm 1,5 km/h (1 Bft) SO 0,02 h 0,025 mm 0,0 UV-I 17 W/m 3,5 C 2,4 km/h (1 Bft)
09.10.2016 19:00 3,9 C 4,0 C 93 % 1022,6 hPa 0,0 mm 0,1 km/h (0 Bft) N 0,00 h 0,000 mm 0,0 UV-I 0 W/m 2,8 C 0,3 km/h (0 Bft)
09.10.2016 20:00 3,3 C 3,3 C 93 % 1023,0 hPa 0,0 mm 2,2 km/h (1 Bft) S 0,00 h 0,000 mm 0,0 UV-I 0 W/m 2,3 C 3,3 km/h (1 Bft)
09.10.2016 21:00 2,9 C 2,9 C 93 % 1023,5 hPa 0,0 mm 1,2 km/h (1 Bft) SO 0,00 h 0,000 mm 0,0 UV-I 0 W/m 1,9 C 2,1 km/h (1 Bft)
09.10.2016 22:00 2,7 C 2,7 C 94 % 1023,8 hPa 0,0 mm 0,2 km/h (0 Bft) SO 0,00 h 0,000 mm 0,0 UV-I 0 W/m 1,9 C 0,5 km/h (0 Bft)
09.10.2016 23:00 2,0 C 2,0 C 94 % 1024,0 hPa 0,0 mm 0,3 km/h (0 Bft) SO 0,00 h 0,000 mm 0,0 UV-I 0 W/m 1,2 C 0,6 km/h (0 Bft)
Min-Datum _ 06.10.16 06.10.16 05.10.16 07.10.16 - 09.10.16 - - - - - 06.10.16 09.10.16
_ Min-Zeit 03:45 03:27 15:50 06:31 - 23:01 - - - - - 03:26 23:01
Minimum _ -1,7 C -1,6 C 63 % 1015,7 hPa - 0,0 km/h (0 Bft) - - - - - -2,4 C 0,0 km/h (0 Bft)
Max-Datum _ 03.10.16 03.10.16 09.10.16 04.10.16 04.10.16 03.10.16 - 09.10.16 03.10.16 03.10.16 03.10.16 03.10.16 03.10.16
_ Max-Zeit 16:00 16:00 10:00 23:01 03:05 16:40 - 18:27 15:00 12:25 12:09 12:26 17:03
Maximum _ 12,1 C 12,1 C 97 % 1029,3 hPa 1,6 mm 15,7 km/h
W (3 Bft)
- 0,02 h 0,204 mm 4,0 UV-I 870 W/m 7,8 C 24,1 km/h
W-SW (4 Bft)
Durchschnitt _ 5,8 C 5,8 C 89 % 1022,3 hPa #14,0 mm 2,3 km/h (1 Bft) NO #8:40 h #5,308 mm 1,3 UV-I 64 W/m 4,0 C 3,9 km/h (1 Bft)